Terminal Aerodrome Forecast
Issued by NWS

Home | Current Version | Previous Version | Text Only | Print | Product List | Glossary On
Versions: 1 2 3 4 5 6 7 8 9 10 11 12 13 14 15 16 17 18 19 20 21 22 23 24 25 26 27 28 29 30 31 32 33 34
000
FTUS45 KTWC 162300
TAFOLS
TAF
KOLS 162333Z 1700/1724 09011KT P6SM BKN110 OVC130
     FM170300 10008KT P6SM VCSH SCT040 OVC080
      TEMPO 1708/1712 -SHRA SCT025 OVC040
     FM171200 12010KT P6SM SHRA BKN030 OVC040=

USA.gov is the U.S. government's official web portal to all federal, state and local government web resources and services.